createdAt,value
2016-11-12T00:00:31.126Z,0.76
2016-11-12T00:01:31.736Z,0.78
2016-11-12T00:02:32.373Z,0.81
2016-11-12T00:03:32.983Z,0.77
2016-11-12T00:04:33.604Z,0.78
2016-11-12T00:05:34.222Z,0.8
2016-11-12T00:06:34.859Z,0.81
2016-11-12T00:07:35.468Z,0.78
2016-11-12T00:08:36.089Z,0.74
2016-11-12T00:09:36.697Z,0.84
2016-11-12T00:10:37.303Z,0.81
2016-11-12T00:11:37.931Z,0.77
2016-11-12T00:12:38.537Z,0.8
2016-11-12T00:13:39.153Z,0.8
2016-11-12T00:14:39.775Z,0.84
2016-11-12T00:15:40.387Z,0.76
2016-11-12T00:16:41.001Z,0.69
2016-11-12T00:17:41.642Z,0.68
2016-11-12T00:18:42.245Z,0.62
2016-11-12T00:19:42.866Z,0.66
2016-11-12T00:20:43.471Z,0.66
2016-11-12T00:21:44.081Z,0.74
2016-11-12T00:22:44.711Z,0.66
2016-11-12T00:23:45.333Z,0.7
2016-11-12T00:24:45.948Z,0.7
2016-11-12T00:25:46.575Z,0.76
2016-11-12T00:26:47.192Z,0.69
2016-11-12T00:27:47.796Z,0.73
2016-11-12T00:28:48.420Z,0.65
2016-11-12T00:29:49.042Z,0.62
2016-11-12T00:30:49.791Z,0.5
2016-11-12T00:31:50.412Z,0.5
2016-11-12T00:32:51.041Z,0.55
2016-11-12T00:33:51.645Z,0.65
2016-11-12T00:34:52.261Z,0.62
2016-11-12T00:35:52.877Z,0.6
2016-11-12T00:36:53.505Z,0.58
2016-11-12T00:37:54.122Z,0.62
2016-11-12T00:38:54.755Z,0.62
2016-11-12T00:39:55.437Z,0.6
2016-11-12T00:40:56.037Z,0.59
2016-11-12T00:41:56.653Z,0.59
2016-11-12T00:42:57.269Z,0.62
2016-11-12T00:43:57.900Z,0.6
2016-11-12T00:44:58.514Z,0.59
2016-11-12T00:45:59.126Z,0.52
2016-11-12T00:46:59.810Z,0.49
2016-11-12T00:48:00.427Z,0.59
2016-11-12T00:49:01.103Z,0.55
2016-11-12T00:50:01.724Z,0.52
2016-11-12T00:51:02.331Z,0.56
2016-11-12T00:52:02.952Z,0.62
2016-11-12T00:53:03.569Z,0.59
2016-11-12T00:54:04.184Z,0.66
2016-11-12T00:55:04.789Z,0.59
2016-11-12T00:56:05.513Z,0.52
2016-11-12T00:57:06.112Z,0.58
2016-11-12T00:58:06.751Z,0.6
2016-11-12T00:59:07.365Z,0.59
2016-11-12T01:00:07.967Z,0.52
2016-11-12T01:01:08.615Z,0.56
2016-11-12T01:02:09.230Z,0.5
2016-11-12T01:03:09.845Z,0.47
2016-11-12T01:04:10.449Z,0.55
2016-11-12T01:05:11.066Z,0.5
2016-11-12T01:06:11.670Z,0.5
2016-11-12T01:07:12.280Z,0.47
2016-11-12T01:08:12.892Z,0.43
2016-11-12T01:09:13.503Z,0.5
2016-11-12T01:10:14.106Z,0.46
2016-11-12T01:11:14.749Z,0.52
2016-11-12T01:12:15.371Z,0.5
2016-11-12T01:13:15.986Z,0.41
2016-11-12T01:14:16.602Z,0.5
2016-11-12T01:15:17.207Z,0.39
2016-11-12T01:16:17.832Z,0.47
2016-11-12T01:17:18.435Z,0.39
2016-11-12T01:18:19.049Z,0.39
2016-11-12T01:19:19.665Z,0.32
2016-11-12T01:20:20.273Z,0.37
2016-11-12T01:21:20.971Z,0.36
2016-11-12T01:22:21.579Z,0.29
2016-11-12T01:23:22.207Z,0.31
2016-11-12T01:24:22.820Z,0.28
2016-11-12T01:25:23.476Z,0.28
2016-11-12T01:26:24.081Z,0.26
2016-11-12T01:27:24.691Z,0.36
2016-11-12T01:28:25.322Z,0.39
2016-11-12T01:29:25.941Z,0.37
2016-11-12T01:30:26.608Z,0.31
2016-11-12T01:31:27.186Z,0.4
2016-11-12T01:32:27.809Z,0.43
2016-11-12T01:33:28.416Z,0.44
2016-11-12T01:34:29.039Z,0.37
2016-11-12T01:35:29.666Z,0.39
2016-11-12T01:36:30.282Z,0.44
2016-11-12T01:37:30.915Z,0.49
2016-11-12T01:38:31.525Z,0.52
2016-11-12T01:39:32.154Z,0.4
2016-11-12T01:40:32.779Z,0.44
2016-11-12T01:41:33.391Z,0.41
2016-11-12T01:42:34.012Z,0.4
2016-11-12T01:43:34.632Z,0.41
2016-11-12T01:44:35.247Z,0.41
2016-11-12T01:45:35.856Z,0.46
2016-11-12T01:46:36.463Z,0.39
2016-11-12T01:47:37.092Z,0.36
2016-11-12T01:48:37.699Z,0.36
2016-11-12T01:49:38.308Z,0.37
2016-11-12T01:50:38.918Z,0.29
2016-11-12T01:51:39.544Z,0.39
2016-11-12T01:52:40.168Z,0.36
2016-11-12T01:53:40.796Z,0.34
2016-11-12T01:54:41.411Z,0.32
2016-11-12T01:55:42.021Z,0.34
2016-11-12T01:56:42.640Z,0.31
2016-11-12T01:57:43.277Z,0.34
2016-11-12T01:58:43.869Z,0.41
2016-11-12T01:59:44.476Z,0.39
2016-11-12T02:00:45.084Z,0.32
2016-11-12T02:01:45.690Z,0.28
2016-11-12T02:02:46.299Z,0.19
2016-11-12T02:03:46.927Z,0.15
2016-11-12T02:04:47.546Z,0.22
2016-11-12T02:05:48.157Z,0.21
2016-11-12T02:06:48.759Z,0.15
2016-11-12T02:07:49.363Z,0.21
2016-11-12T02:08:49.968Z,0.21
2016-11-12T02:09:50.582Z,0.16
2016-11-12T02:10:51.211Z,0.15
2016-11-12T02:11:51.888Z,0.16
2016-11-12T02:12:52.511Z,0.04
2016-11-12T02:13:53.154Z,0.05
2016-11-12T02:14:53.783Z,0.05
2016-11-12T02:15:54.384Z,0.07
2016-11-12T02:16:54.997Z,0.05
2016-11-12T02:17:55.636Z,0.07
2016-11-12T02:18:56.259Z,0.03
2016-11-12T02:19:56.903Z,-0.13
2016-11-12T02:20:57.510Z,-0.11
2016-11-12T02:21:58.134Z,-0.13
2016-11-12T02:22:58.773Z,-0.06
2016-11-12T02:23:59.376Z,0.03
2016-11-12T02:24:59.990Z,0.1
2016-11-12T02:26:00.597Z,0.08
2016-11-12T02:27:01.208Z,0.1
2016-11-12T02:28:01.832Z,0.08
2016-11-12T02:29:02.442Z,0.07
2016-11-12T02:30:03.037Z,0.08
2016-11-12T02:31:03.642Z,0.08
2016-11-12T02:32:04.262Z,0.1
2016-11-12T02:33:04.871Z,0.08
2016-11-12T02:34:05.484Z,0.11
2016-11-12T02:35:06.087Z,0.08
2016-11-12T02:36:06.710Z,0.1
2016-11-12T02:37:07.322Z,0.12
2016-11-12T02:38:07.942Z,0.08
2016-11-12T02:39:08.549Z,0.08
2016-11-12T02:40:09.185Z,0.08
2016-11-12T02:41:09.802Z,0.11
2016-11-12T02:42:10.402Z,0.04
2016-11-12T02:43:11.049Z,0.08
2016-11-12T02:44:11.666Z,0.07
2016-11-12T02:45:12.287Z,0.04
2016-11-12T02:46:12.889Z,0.18
2016-11-12T02:47:13.520Z,0.1
2016-11-12T02:48:14.156Z,0.03
2016-11-12T02:49:14.771Z,0.05
2016-11-12T02:50:15.437Z,0.03
2016-11-12T02:51:16.042Z,0.08
2016-11-12T02:52:23.508Z,0.05
2016-11-12T02:53:24.125Z,0.04
2016-11-12T02:54:24.729Z,0.01
2016-11-12T02:55:25.446Z,0.08
2016-11-12T02:56:26.063Z,0.07
2016-11-12T02:57:26.683Z,0.05
2016-11-12T02:58:27.291Z,-0.07
2016-11-12T02:59:27.907Z,-0.13
2016-11-12T03:00:28.542Z,-0.14
2016-11-12T03:01:29.150Z,-0.28
2016-11-12T03:02:29.773Z,-0.29
2016-11-12T03:03:30.436Z,-0.26
2016-11-12T03:04:31.045Z,-0.29
2016-11-12T03:05:31.677Z,-0.29
2016-11-12T03:06:32.289Z,-0.18
2016-11-12T03:07:32.895Z,-0.25
2016-11-12T03:08:33.523Z,-0.36
2016-11-12T03:09:34.119Z,-0.23
2016-11-12T03:10:34.740Z,-0.32
2016-11-12T03:11:35.356Z,-0.28
2016-11-12T03:12:35.959Z,-0.25
2016-11-12T03:13:36.572Z,-0.28
2016-11-12T03:14:37.196Z,-0.36
2016-11-12T03:15:37.801Z,-0.43
2016-11-12T03:16:38.413Z,-0.39
2016-11-12T03:17:39.027Z,-0.36
2016-11-12T03:18:39.650Z,-0.38
2016-11-12T03:19:40.264Z,-0.38
2016-11-12T03:20:40.880Z,-0.32
2016-11-12T03:21:41.480Z,-0.28
2016-11-12T03:22:42.118Z,-0.29
2016-11-12T03:23:42.740Z,-0.21
2016-11-12T03:24:43.341Z,-0.31
2016-11-12T03:25:43.955Z,-0.31
2016-11-12T03:26:44.566Z,-0.38
2016-11-12T03:27:45.185Z,-0.52
2016-11-12T03:28:45.798Z,-0.56
2016-11-12T03:29:46.419Z,-0.5
2016-11-12T03:30:47.038Z,-0.57
2016-11-12T03:31:47.686Z,-0.5
2016-11-12T03:32:48.303Z,-0.46
2016-11-12T03:33:48.926Z,-0.41
2016-11-12T03:34:49.557Z,-0.46
2016-11-12T03:35:50.170Z,-0.39
2016-11-12T03:36:50.803Z,-0.36
2016-11-12T03:37:51.437Z,-0.52
2016-11-12T03:38:52.046Z,-0.62
2016-11-12T03:39:52.660Z,-0.65
2016-11-12T03:40:53.304Z,-0.67
2016-11-12T03:41:53.903Z,-0.68
2016-11-12T03:42:54.543Z,-0.57
2016-11-12T03:43:55.148Z,-0.59
2016-11-12T03:44:55.752Z,-0.62
2016-11-12T03:45:56.373Z,-0.59
2016-11-12T03:46:56.984Z,-0.65
2016-11-12T03:47:57.600Z,-0.59
2016-11-12T03:48:58.240Z,-0.61
2016-11-12T03:49:58.855Z,-0.67
2016-11-12T03:50:59.480Z,-0.57
2016-11-12T03:52:00.082Z,-0.7
2016-11-12T03:53:00.689Z,-0.72
2016-11-12T03:54:01.299Z,-0.7
2016-11-12T03:55:02.008Z,-0.65
2016-11-12T03:56:02.630Z,-0.64
2016-11-12T03:57:03.251Z,-0.59
2016-11-12T03:58:03.897Z,-0.59
2016-11-12T03:59:04.530Z,-0.65
2016-11-12T04:00:05.129Z,-0.62
2016-11-12T04:01:05.728Z,-0.59
2016-11-12T04:02:06.331Z,-0.59
2016-11-12T04:03:06.960Z,-0.62
2016-11-12T04:04:07.563Z,-0.57
2016-11-12T04:05:08.170Z,-0.54
2016-11-12T04:06:08.803Z,-0.67
2016-11-12T04:07:09.420Z,-0.57
2016-11-12T04:08:10.040Z,-0.67
2016-11-12T04:09:10.648Z,-0.7
2016-11-12T04:10:11.281Z,-0.82
2016-11-12T04:11:11.895Z,-0.8
2016-11-12T04:12:12.510Z,-0.89
2016-11-12T04:13:13.117Z,-0.86
2016-11-12T04:14:13.714Z,-0.91
2016-11-12T04:15:14.337Z,-0.82
2016-11-12T04:16:14.939Z,-0.83
2016-11-12T04:17:15.544Z,-0.89
2016-11-12T04:18:16.150Z,-0.97
2016-11-12T04:19:16.769Z,-0.85
2016-11-12T04:20:17.380Z,-0.86
2016-11-12T04:21:17.988Z,-0.8
2016-11-12T04:22:18.622Z,-0.9
2016-11-12T04:23:19.255Z,-0.83
2016-11-12T04:24:19.867Z,-0.71
2016-11-12T04:25:20.507Z,-0.8
2016-11-12T04:26:21.121Z,-0.75
2016-11-12T04:27:21.744Z,-0.83
2016-11-12T04:28:22.369Z,-0.9
2016-11-12T04:29:22.981Z,-0.94
2016-11-12T04:30:23.604Z,-0.86
2016-11-12T04:31:24.230Z,-0.97
2016-11-12T04:32:24.844Z,-1.02
2016-11-12T04:33:25.459Z,-1.15
2016-11-12T04:34:26.094Z,-1.14
2016-11-12T04:35:26.700Z,-1.17
2016-11-12T04:36:27.299Z,-1.22
2016-11-12T04:37:27.899Z,-1.27
2016-11-12T04:38:28.505Z,-1.2
2016-11-12T04:39:29.118Z,-1.23
2016-11-12T04:40:29.748Z,-1.37
2016-11-12T04:41:30.353Z,-1.33
2016-11-12T04:42:30.975Z,-1.35
2016-11-12T04:43:31.580Z,-1.43
2016-11-12T04:44:32.203Z,-1.37
2016-11-12T04:45:32.806Z,-1.4
2016-11-12T04:46:33.413Z,-1.26
2016-11-12T04:47:34.029Z,-1.37
2016-11-12T04:48:34.637Z,-1.4
2016-11-12T04:49:35.253Z,-1.41
2016-11-12T04:50:35.863Z,-1.32
2016-11-12T04:51:36.489Z,-1.26
2016-11-12T04:52:37.106Z,-1.3
2016-11-12T04:53:37.729Z,-1.3
2016-11-12T04:54:38.344Z,-1.3
2016-11-12T04:55:38.957Z,-1.27
2016-11-12T04:56:39.579Z,-1.32
2016-11-12T04:57:40.191Z,-1.25
2016-11-12T04:58:40.804Z,-1.2
2016-11-12T04:59:41.430Z,-1.19
2016-11-12T05:00:42.040Z,-1.25
2016-11-12T05:01:42.642Z,-1.2
2016-11-12T05:02:43.262Z,-1.19
2016-11-12T05:03:43.877Z,-1.11
2016-11-12T05:04:44.493Z,-1.15
2016-11-12T05:05:45.105Z,-1.17
2016-11-12T05:06:45.706Z,-1.17
2016-11-12T05:07:46.322Z,-1.09
2016-11-12T05:08:46.945Z,-0.99
2016-11-12T05:09:47.566Z,-1.08
2016-11-12T05:10:48.170Z,-1.12
2016-11-12T05:11:48.777Z,-1.04
2016-11-12T05:12:49.386Z,-1.05
2016-11-12T05:13:49.990Z,-1.12
2016-11-12T05:14:50.599Z,-1.09
2016-11-12T05:15:51.218Z,-1.05
2016-11-12T05:16:51.830Z,-1.11
2016-11-12T05:17:52.452Z,-1.22
2016-11-12T05:18:53.058Z,-1.19
2016-11-12T05:19:53.664Z,-1.3
2016-11-12T05:20:54.287Z,-1.37
2016-11-12T05:21:54.899Z,-1.33
2016-11-12T05:22:55.525Z,-1.2
2016-11-12T05:23:56.155Z,-1.22
2016-11-12T05:24:56.763Z,-1.2
2016-11-12T05:25:57.374Z,-1.26
2016-11-12T05:26:57.980Z,-1.19
2016-11-12T05:27:58.601Z,-1.22
2016-11-12T05:28:59.212Z,-1.2
2016-11-12T05:29:59.828Z,-1.19
2016-11-12T05:31:00.445Z,-1.22
2016-11-12T05:32:01.057Z,-1.15
2016-11-12T05:33:01.661Z,-1.27
2016-11-12T05:34:02.280Z,-1.27
2016-11-12T05:35:02.902Z,-1.14
2016-11-12T05:36:03.610Z,-1.25
2016-11-12T05:37:04.253Z,-1.15
2016-11-12T05:38:04.866Z,-1.12
2016-11-12T05:39:05.470Z,-1.09
2016-11-12T05:40:06.124Z,-1.11
2016-11-12T05:41:06.748Z,-1.14
2016-11-12T05:42:07.357Z,-1.05
2016-11-12T05:43:07.972Z,-1.12
2016-11-12T05:44:08.574Z,-1.14
2016-11-12T05:45:09.183Z,-1.2
2016-11-12T05:46:09.790Z,-1.32
2016-11-12T05:47:10.396Z,-1.22
2016-11-12T05:48:11.021Z,-1.2
2016-11-12T05:49:11.627Z,-1.19
2016-11-12T05:50:12.233Z,-1.19
2016-11-12T05:51:12.843Z,-1.26
2016-11-12T05:52:13.457Z,-1.32
2016-11-12T05:53:14.080Z,-1.19
2016-11-12T05:54:14.690Z,-1.2
2016-11-12T05:55:15.319Z,-1.32
2016-11-12T05:56:15.935Z,-1.32
2016-11-12T05:57:16.554Z,-1.35
2016-11-12T05:58:17.175Z,-1.37
2016-11-12T05:59:17.791Z,-1.4
2016-11-12T06:00:18.487Z,-1.48
2016-11-12T06:01:19.221Z,-1.44
2016-11-12T06:02:19.949Z,-1.64
2016-11-12T06:03:20.723Z,-1.43
2016-11-12T06:04:21.503Z,-1.43
2016-11-12T06:05:22.236Z,-1.48
2016-11-12T06:06:22.967Z,-1.54
2016-11-12T06:07:23.776Z,-1.54
2016-11-12T06:08:24.485Z,-1.41
2016-11-12T06:09:25.130Z,-1.48
2016-11-12T06:10:25.948Z,-1.58
2016-11-12T06:11:26.623Z,-1.46
2016-11-12T06:12:27.331Z,-1.41
2016-11-12T06:13:28.032Z,-1.4
2016-11-12T06:14:28.680Z,-1.51
2016-11-12T06:15:29.352Z,-1.4
2016-11-12T06:16:29.946Z,-1.41
2016-11-12T06:17:30.553Z,-1.35
2016-11-12T06:18:31.176Z,-1.4
2016-11-12T06:19:31.795Z,-1.44
2016-11-12T06:20:32.413Z,-1.46
2016-11-12T06:21:33.024Z,-1.51
2016-11-12T06:22:33.667Z,-1.44
2016-11-12T06:23:34.302Z,-1.54
2016-11-12T06:24:34.920Z,-1.51
2016-11-12T06:25:35.647Z,-1.56
2016-11-12T06:26:36.234Z,-1.53
2016-11-12T06:27:36.854Z,-1.48
2016-11-12T06:28:37.505Z,-1.51
2016-11-12T06:29:38.122Z,-1.46
2016-11-12T06:30:38.752Z,-1.53
2016-11-12T06:31:39.360Z,-1.56
2016-11-12T06:32:40.002Z,-1.56
2016-11-12T06:33:40.730Z,-1.46
2016-11-12T06:34:41.358Z,-1.48
2016-11-12T06:35:41.969Z,-1.47
2016-11-12T06:36:42.608Z,-1.47
2016-11-12T06:37:43.236Z,-1.41
2016-11-12T06:38:43.867Z,-1.47
2016-11-12T06:39:44.511Z,-1.5
2016-11-12T06:40:45.199Z,-1.48
2016-11-12T06:41:45.821Z,-1.44
2016-11-12T06:42:46.438Z,-1.47
2016-11-12T06:43:47.052Z,-1.47
2016-11-12T06:44:47.678Z,-1.5
2016-11-12T06:45:48.397Z,-1.44
2016-11-12T06:46:49.005Z,-1.47
2016-11-12T06:47:49.686Z,-1.47
2016-11-12T06:48:50.307Z,-1.43
2016-11-12T06:49:50.934Z,-1.48
2016-11-12T06:50:51.570Z,-1.46
2016-11-12T06:51:52.191Z,-1.43
2016-11-12T06:52:52.841Z,-1.44
2016-11-12T06:53:53.448Z,-1.5
2016-11-12T06:54:54.060Z,-1.58
2016-11-12T06:55:54.663Z,-1.43
2016-11-12T06:56:55.284Z,-1.59
2016-11-12T06:57:55.921Z,-1.47
2016-11-12T06:58:56.538Z,-1.44
2016-11-12T06:59:57.159Z,-1.5
2016-11-12T07:00:57.769Z,-1.47
2016-11-12T07:01:58.423Z,-1.44
2016-11-12T07:02:59.045Z,-1.38
2016-11-12T07:03:59.694Z,-1.48
2016-11-12T07:05:00.315Z,-1.48
2016-11-12T07:06:00.942Z,-1.56
2016-11-12T07:07:01.568Z,-1.5
2016-11-12T07:08:02.205Z,-1.51
2016-11-12T07:09:02.832Z,-1.46
2016-11-12T07:10:03.458Z,-1.47
2016-11-12T07:11:04.093Z,-1.46
2016-11-12T07:12:04.713Z,-1.47
2016-11-12T07:13:05.336Z,-1.47
2016-11-12T07:14:05.971Z,-1.5
2016-11-12T07:15:06.590Z,-1.43
2016-11-12T07:16:07.209Z,-1.5
2016-11-12T07:17:07.820Z,-1.48
2016-11-12T07:18:08.675Z,-1.58
2016-11-12T07:19:09.063Z,-1.64
2016-11-12T07:20:09.699Z,-1.56
2016-11-12T07:21:10.324Z,-1.59
2016-11-12T07:22:10.935Z,-1.61
2016-11-12T07:23:11.551Z,-1.69
2016-11-12T07:24:12.164Z,-1.58
2016-11-12T07:25:12.780Z,-1.5
2016-11-12T07:26:13.387Z,-1.48
2016-11-12T07:27:13.992Z,-1.5
2016-11-12T07:28:14.630Z,-1.58
2016-11-12T07:29:15.242Z,-1.54
2016-11-12T07:30:15.840Z,-1.5
2016-11-12T07:31:16.447Z,-1.64
2016-11-12T07:32:17.058Z,-1.61
2016-11-12T07:33:17.665Z,-1.64
2016-11-12T07:34:18.292Z,-1.64
2016-11-12T07:35:18.914Z,-1.64
2016-11-12T07:36:19.523Z,-1.51
2016-11-12T07:37:20.160Z,-1.51
2016-11-12T07:38:20.781Z,-1.5
2016-11-12T07:39:21.407Z,-1.44
2016-11-12T07:40:22.027Z,-1.5
2016-11-12T07:41:22.652Z,-1.5
2016-11-12T07:42:23.276Z,-1.68
2016-11-12T07:43:23.890Z,-1.51
2016-11-12T07:44:24.511Z,-1.68
2016-11-12T07:45:25.119Z,-1.54
2016-11-12T07:46:25.761Z,-1.56
2016-11-12T07:47:26.375Z,-1.44
2016-11-12T07:48:26.991Z,-1.41
2016-11-12T07:49:27.615Z,-1.47
2016-11-12T07:50:28.238Z,-1.43
2016-11-12T07:51:28.864Z,-1.41
2016-11-12T07:52:29.496Z,-1.33
2016-11-12T07:53:30.140Z,-1.37
2016-11-12T07:54:30.766Z,-1.29
2016-11-12T07:55:31.387Z,-1.27
2016-11-12T07:56:32.006Z,-1.27
2016-11-12T07:57:32.615Z,-1.3
2016-11-12T07:58:33.228Z,-1.4
2016-11-12T07:59:33.891Z,-1.3
2016-11-12T08:00:34.508Z,-1.19
2016-11-12T08:01:35.120Z,-1.25
2016-11-12T08:02:35.738Z,-1.46
2016-11-12T08:03:36.373Z,-1.47
2016-11-12T08:04:36.989Z,-1.38
2016-11-12T08:05:37.629Z,-1.35
2016-11-12T08:06:38.283Z,-1.33
2016-11-12T08:07:38.891Z,-1.37
2016-11-12T08:08:39.529Z,-1.48
2016-11-12T08:09:40.160Z,-1.43
2016-11-12T08:10:40.792Z,-1.4
2016-11-12T08:11:41.413Z,-1.43
2016-11-12T08:12:42.025Z,-1.58
2016-11-12T08:13:42.658Z,-1.71
2016-11-12T08:14:43.267Z,-1.66
2016-11-12T08:15:43.887Z,-1.51
2016-11-12T08:16:44.509Z,-1.58
2016-11-12T08:17:45.135Z,-1.61
2016-11-12T08:18:45.751Z,-1.56
2016-11-12T08:19:46.376Z,-1.56
2016-11-12T08:20:47.022Z,-1.5
2016-11-12T08:21:47.748Z,-1.53
2016-11-12T08:22:48.358Z,-1.62
2016-11-12T08:23:48.971Z,-1.65
2016-11-12T08:24:49.581Z,-1.71
2016-11-12T08:25:50.195Z,-1.65
2016-11-12T08:26:50.814Z,-1.64
2016-11-12T08:27:51.439Z,-1.68
2016-11-12T08:28:52.068Z,-1.66
2016-11-12T08:29:52.692Z,-1.64
2016-11-12T08:30:53.303Z,-1.68
2016-11-12T08:31:53.930Z,-1.71
2016-11-12T08:32:54.565Z,-1.64
2016-11-12T08:33:55.176Z,-1.64
2016-11-12T08:34:55.799Z,-1.53
2016-11-12T08:35:56.424Z,-1.44
2016-11-12T08:36:57.041Z,-1.47
2016-11-12T08:37:57.661Z,-1.58
2016-11-12T08:38:58.290Z,-1.44
2016-11-12T08:39:58.901Z,-1.44
2016-11-12T08:40:59.519Z,-1.38
2016-11-12T08:42:00.149Z,-1.38
2016-11-12T08:43:00.768Z,-1.26
2016-11-12T08:44:01.386Z,-1.27
2016-11-12T08:45:02.010Z,-1.19
2016-11-12T08:46:02.630Z,-1.32
2016-11-12T08:47:03.254Z,-1.35
2016-11-12T08:48:03.910Z,-1.35
2016-11-12T08:49:04.558Z,-1.41
2016-11-12T08:50:05.162Z,-1.27
2016-11-12T08:51:05.784Z,-1.26
2016-11-12T08:52:06.400Z,-1.23
2016-11-12T08:53:07.032Z,-1.25
2016-11-12T08:54:07.661Z,-1.22
2016-11-12T08:55:08.288Z,-1.19
2016-11-12T08:56:08.897Z,-1.33
2016-11-12T08:57:09.522Z,-1.48
2016-11-12T08:58:10.117Z,-1.64
2016-11-12T08:59:10.748Z,-1.68
2016-11-12T09:00:11.369Z,-1.82
2016-11-12T09:01:12.003Z,-1.95
2016-11-12T09:02:12.610Z,-2.08
2016-11-12T09:03:13.239Z,-2.05
2016-11-12T09:04:13.858Z,-1.97
2016-11-12T09:05:14.527Z,-1.84
2016-11-12T09:06:15.095Z,-1.82
2016-11-12T09:07:15.708Z,-1.97
2016-11-12T09:08:16.331Z,-2.07
2016-11-12T09:09:16.955Z,-2.02
2016-11-12T09:10:17.595Z,-1.89
2016-11-12T09:11:18.245Z,-1.84
2016-11-12T09:12:18.823Z,-1.72
2016-11-12T09:13:19.433Z,-1.72
2016-11-12T09:14:20.083Z,-1.8
2016-11-12T09:15:20.691Z,-1.74
2016-11-12T09:16:21.309Z,-1.83
2016-11-12T09:17:21.934Z,-1.82
2016-11-12T09:18:22.554Z,-1.84
2016-11-12T09:19:23.175Z,-1.83
2016-11-12T09:20:23.788Z,-1.68
2016-11-12T09:21:24.403Z,-1.53
2016-11-12T09:22:25.068Z,-1.48
2016-11-12T09:23:25.648Z,-1.47
2016-11-12T09:24:26.260Z,-1.44
2016-11-12T09:25:26.875Z,-1.38
2016-11-12T09:26:27.499Z,-1.41
2016-11-12T09:27:28.138Z,-1.37
2016-11-12T09:28:28.762Z,-1.32
2016-11-12T09:29:29.396Z,-1.33
2016-11-12T09:30:30.009Z,-1.37
2016-11-12T09:31:30.687Z,-1.53
2016-11-12T09:32:31.324Z,-1.64
2016-11-12T09:33:31.992Z,-1.62
2016-11-12T09:34:32.595Z,-1.66
2016-11-12T09:35:33.209Z,-1.58
2016-11-12T09:36:33.835Z,-1.61
2016-11-12T09:37:34.440Z,-1.41
2016-11-12T09:38:35.067Z,-1.44
2016-11-12T09:39:35.680Z,-1.37
2016-11-12T09:40:36.305Z,-1.2
2016-11-12T09:41:36.911Z,-1.35
2016-11-12T09:42:37.537Z,-1.32
2016-11-12T09:43:38.146Z,-1.26
2016-11-12T09:44:38.774Z,-1.3
2016-11-12T09:45:39.395Z,-1.56
2016-11-12T09:46:40.003Z,-1.64
2016-11-12T09:47:40.623Z,-1.58
2016-11-12T09:48:41.235Z,-1.59
2016-11-12T09:49:41.858Z,-1.48
2016-11-12T09:50:42.522Z,-1.48
2016-11-12T09:51:43.144Z,-1.66
2016-11-12T09:52:43.775Z,-1.56
2016-11-12T09:53:44.402Z,-1.59
2016-11-12T09:54:45.027Z,-1.59
2016-11-12T09:55:45.633Z,-1.65
2016-11-12T09:56:46.258Z,-1.69
2016-11-12T09:57:46.865Z,-1.86
2016-11-12T09:58:47.530Z,-1.68
2016-11-12T09:59:48.144Z,-1.68
2016-11-12T10:00:48.835Z,-1.47
2016-11-12T10:01:49.449Z,-1.37
2016-11-12T10:02:50.101Z,-1.37
2016-11-12T10:03:50.708Z,-1.43
2016-11-12T10:04:51.329Z,-1.48
2016-11-12T10:05:51.990Z,-1.41
2016-11-12T10:06:52.603Z,-1.44
2016-11-12T10:07:53.223Z,-1.46
2016-11-12T10:08:53.852Z,-1.35
2016-11-12T10:09:54.461Z,-1.2
2016-11-12T10:10:55.084Z,-1.15
2016-11-12T10:11:55.723Z,-1.15
2016-11-12T10:12:56.352Z,-1.14
2016-11-12T10:13:56.986Z,-1.07
2016-11-12T10:14:57.661Z,-0.99
2016-11-12T10:15:58.310Z,-1.04
2016-11-12T10:16:58.945Z,-1.01
2016-11-12T10:17:59.599Z,-1.02
2016-11-12T10:19:00.210Z,-1.07
2016-11-12T10:20:00.847Z,-1.09
2016-11-12T10:21:01.490Z,-0.99
2016-11-12T10:22:02.127Z,-0.93
2016-11-12T10:23:02.817Z,-0.93
2016-11-12T10:24:03.518Z,-0.94
2016-11-12T10:25:04.125Z,-0.94
2016-11-12T10:26:04.758Z,-0.99
2016-11-12T10:27:05.376Z,-0.89
2016-11-12T10:28:05.992Z,-0.94
2016-11-12T10:29:06.631Z,-1.02
2016-11-12T10:30:07.264Z,-0.91
2016-11-12T10:31:07.874Z,-1.11
2016-11-12T10:32:08.513Z,-0.93
2016-11-12T10:33:09.134Z,-0.85
2016-11-12T10:34:09.762Z,-0.86
2016-11-12T10:35:10.374Z,-0.89
2016-11-12T10:36:11.007Z,-0.74
2016-11-12T10:37:11.625Z,-1.01
2016-11-12T10:38:12.241Z,-1.14
2016-11-12T10:39:12.953Z,-1.15
2016-11-12T10:40:13.598Z,-1.12
2016-11-12T10:41:14.222Z,-1.19
2016-11-12T10:42:14.839Z,-1.17
2016-11-12T10:43:15.459Z,-1.35
2016-11-12T10:44:16.186Z,-1.2
2016-11-12T10:45:16.833Z,-1.22
2016-11-12T10:46:17.450Z,-1.17
2016-11-12T10:47:18.083Z,-1.23
2016-11-12T10:48:18.700Z,-1.29
2016-11-12T10:49:19.437Z,-1.15
2016-11-12T10:50:20.051Z,-1.11
2016-11-12T10:51:20.752Z,-1.12
2016-11-12T10:52:21.380Z,-1.04
2016-11-12T10:53:22.008Z,-1.01
2016-11-12T10:54:22.624Z,-0.9
2016-11-12T10:55:23.244Z,-0.91
2016-11-12T10:56:23.856Z,-0.96
2016-11-12T10:57:24.497Z,-0.97
2016-11-12T10:58:25.109Z,-0.89
2016-11-12T10:59:25.736Z,-0.9
2016-11-12T11:00:26.394Z,-0.83
2016-11-12T11:01:27.020Z,-0.74
2016-11-12T11:02:27.645Z,-0.85
2016-11-12T11:03:28.272Z,-0.82
2016-11-12T11:04:28.965Z,-0.8
2016-11-12T11:05:29.618Z,-0.71
2016-11-12T11:06:30.235Z,-0.86
2016-11-12T11:07:30.849Z,-0.85
2016-11-12T11:08:31.477Z,-0.9
2016-11-12T11:09:32.100Z,-0.96
2016-11-12T11:10:32.723Z,-0.93
2016-11-12T11:11:33.339Z,-0.86
2016-11-12T11:12:33.961Z,-0.75
2016-11-12T11:13:34.633Z,-0.82
2016-11-12T11:14:35.255Z,-0.86
2016-11-12T11:15:35.878Z,-0.83
2016-11-12T11:16:36.531Z,-0.93
2016-11-12T11:17:37.167Z,-0.93
2016-11-12T11:18:37.797Z,-0.96
2016-11-12T11:19:38.402Z,-0.74
2016-11-12T11:20:39.024Z,-0.68
2016-11-12T11:21:39.649Z,-0.86
2016-11-12T11:22:40.298Z,-0.83
2016-11-12T11:23:40.946Z,-0.96
2016-11-12T11:24:41.561Z,-0.72
2016-11-12T11:25:42.168Z,-0.67
2016-11-12T11:26:42.781Z,-0.61
2016-11-12T11:27:43.482Z,-0.43
2016-11-12T11:28:44.099Z,-0.39
2016-11-12T11:29:44.855Z,-0.36
2016-11-12T11:30:45.453Z,-0.35
2016-11-12T11:31:46.065Z,-0.31
2016-11-12T11:32:46.680Z,-0.26
2016-11-12T11:33:47.301Z,-0.23
2016-11-12T11:34:47.923Z,-0.31
2016-11-12T11:35:48.550Z,-0.35
2016-11-12T11:36:49.175Z,-0.46
2016-11-12T11:37:49.799Z,-0.47
2016-11-12T11:38:50.444Z,-0.34
2016-11-12T11:39:51.079Z,-0.39
2016-11-12T11:40:51.698Z,-0.39
2016-11-12T11:41:52.307Z,-0.38
2016-11-12T11:42:52.937Z,-0.21
2016-11-12T11:43:53.556Z,-0.38
2016-11-12T11:44:54.182Z,-0.35
2016-11-12T11:45:54.779Z,-0.39
2016-11-12T11:46:55.399Z,-0.35
2016-11-12T11:47:56.029Z,-0.35
2016-11-12T11:48:56.656Z,-0.35
2016-11-12T11:49:57.316Z,-0.32
2016-11-12T11:50:57.968Z,-0.32
2016-11-12T11:51:58.666Z,-0.46
2016-11-12T11:52:59.321Z,-0.44
2016-11-12T11:54:00.205Z,-0.46
2016-11-12T11:55:00.865Z,-0.29
2016-11-12T11:56:01.530Z,-0.18
2016-11-12T11:57:02.262Z,-0.18
2016-11-12T11:58:03.145Z,-0.14
2016-11-12T11:59:03.687Z,-0.14
2016-11-12T12:00:04.481Z,-0.03
2016-11-12T12:01:05.136Z,-0.1
2016-11-12T12:02:05.802Z,-0.13
2016-11-12T12:03:06.512Z,-0.15
2016-11-12T12:04:07.126Z,-0.11
2016-11-12T12:05:07.971Z,0.01
2016-11-12T12:06:08.817Z,-0.1
2016-11-12T12:07:09.480Z,-0.11
2016-11-12T12:08:10.153Z,-0.13
2016-11-12T12:09:10.899Z,-0.13
2016-11-12T12:10:11.866Z,-0.14
2016-11-12T12:11:12.757Z,-0.11
2016-11-12T12:12:13.439Z,-0.11
2016-11-12T12:13:14.254Z,0.01
2016-11-12T12:14:14.937Z,0.04
2016-11-12T12:15:15.779Z,0
2016-11-12T12:16:16.522Z,0.1
2016-11-12T12:17:17.353Z,0.07
2016-11-12T12:18:18.022Z,0.04
2016-11-12T12:19:18.927Z,0.12
2016-11-12T12:20:19.576Z,0.08
2016-11-12T12:21:20.327Z,0.05
2016-11-12T12:22:21.051Z,0.15
2016-11-12T12:23:21.751Z,0.22
2016-11-12T12:24:22.473Z,0.15
2016-11-12T12:25:23.199Z,0.29
2016-11-12T12:26:24.828Z,0.28
2016-11-12T12:27:25.590Z,0.36
2016-11-12T12:28:26.283Z,0.39
2016-11-12T12:29:26.951Z,0.43
2016-11-12T12:30:27.606Z,0.52
2016-11-12T12:31:28.258Z,0.5
2016-11-12T12:32:28.906Z,0.56
2016-11-12T12:33:29.913Z,0.52
2016-11-12T12:34:30.615Z,0.56
2016-11-12T12:35:32.604Z,0.52
2016-11-12T12:36:34.618Z,0.49
2016-11-12T12:37:36.970Z,0.4
2016-11-12T12:38:39.264Z,0.31
2016-11-12T12:39:40.417Z,0.4
2016-11-12T12:40:41.086Z,0.39
2016-11-12T12:41:41.824Z,0.44
2016-11-12T12:42:42.530Z,0.39
2016-11-12T12:43:43.280Z,0.46
2016-11-12T12:44:44.018Z,0.5
2016-11-12T12:45:44.694Z,0.56
2016-11-12T12:46:45.436Z,0.5
2016-11-12T12:47:46.176Z,0.46
2016-11-12T12:48:46.895Z,0.5
2016-11-12T12:49:47.619Z,0.34
2016-11-12T12:50:48.313Z,0.37
2016-11-12T12:51:49.057Z,0.34
2016-11-12T12:52:49.755Z,0.47
2016-11-12T12:53:50.424Z,0.26
2016-11-12T12:54:51.124Z,0.25
2016-11-12T12:55:51.758Z,0.25
2016-11-12T12:56:52.519Z,0.16
2016-11-12T12:57:53.207Z,0.18
2016-11-12T12:58:53.912Z,0.32
2016-11-12T12:59:54.702Z,0.26
2016-11-12T13:00:55.463Z,0.22
2016-11-12T13:01:56.075Z,0.29
2016-11-12T13:02:56.758Z,0.29
2016-11-12T13:03:57.601Z,0.36
2016-11-12T13:04:58.278Z,0.29
2016-11-12T13:05:59.306Z,0.36
2016-11-12T13:07:00.017Z,0.36
2016-11-12T13:08:00.706Z,0.32
2016-11-12T13:09:01.362Z,0.31
2016-11-12T13:10:02.008Z,0.23
2016-11-12T13:11:02.626Z,0.12
2016-11-12T13:12:03.283Z,0.18